createdAt,value
2022-12-04T00:35:14.855Z,51.16
2022-12-04T01:37:27.813Z,51.78
2022-12-04T01:40:23.014Z,51.80
2022-12-04T01:47:17.674Z,51.82
2022-12-04T01:54:42.123Z,51.92
2022-12-04T02:16:08.350Z,51.89
2022-12-04T02:19:20.128Z,51.83
2022-12-04T02:25:33.259Z,51.92
2022-12-04T02:35:28.326Z,51.90
2022-12-04T02:48:07.792Z,52.34
2022-12-04T02:57:53.546Z,52.35
2022-12-04T03:01:08.272Z,52.22
2022-12-04T03:08:10.511Z,52.17
2022-12-04T03:18:33.726Z,51.71
2022-12-04T03:25:32.346Z,51.72
2022-12-04T03:32:39.985Z,51.74
2022-12-04T03:39:12.890Z,51.38
2022-12-04T03:42:41.309Z,51.57
2022-12-04T03:46:42.507Z,51.08
2022-12-04T04:12:16.648Z,50.02
2022-12-04T04:19:29.459Z,49.98
2022-12-04T04:30:34.712Z,50.40
2022-12-04T04:33:47.147Z,49.92
2022-12-04T04:40:36.285Z,50.04
2022-12-04T04:43:36.980Z,49.74
2022-12-04T05:03:26.609Z,49.50
2022-12-04T05:06:11.278Z,49.28
2022-12-04T05:09:14.259Z,49.52
2022-12-04T05:41:25.403Z,49.02
2022-12-04T05:44:31.812Z,48.79
2022-12-04T06:08:40.243Z,48.94
2022-12-04T06:11:49.871Z,48.67
2022-12-04T06:14:39.261Z,48.88
2022-12-04T06:18:01.159Z,48.95
2022-12-04T06:23:26.416Z,48.75
2022-12-04T06:26:17.475Z,48.74
2022-12-04T06:44:25.340Z,48.65
2022-12-04T06:51:04.066Z,47.90
2022-12-04T07:00:18.027Z,48.24
2022-12-04T07:03:21.964Z,48.38
2022-12-04T07:20:01.449Z,48.33
2022-12-04T07:27:00.446Z,48.31
2022-12-04T07:29:32.828Z,48.06
2022-12-04T07:32:19.439Z,47.95
2022-12-04T07:34:52.226Z,47.85
2022-12-04T07:38:00.955Z,47.87
2022-12-04T07:40:38.732Z,47.90
2022-12-04T07:43:33.103Z,48.09
2022-12-04T07:49:33.468Z,47.59
2022-12-04T08:06:23.707Z,47.28
2022-12-04T08:09:18.420Z,47.53
2022-12-04T08:15:10.648Z,47.53
2022-12-04T08:27:05.474Z,47.80
2022-12-04T08:32:59.371Z,47.92
2022-12-04T08:38:46.528Z,47.97
2022-12-04T08:41:27.162Z,48.03
2022-12-04T08:44:05.345Z,48.01
2022-12-04T08:46:47.380Z,47.88
2022-12-04T08:52:49.973Z,48.02
2022-12-04T08:55:24.797Z,48.06
2022-12-04T09:01:15.135Z,48.27
2022-12-04T09:04:06.170Z,48.38
2022-12-04T09:07:38.227Z,48.30
2022-12-04T09:14:11.946Z,48.21
2022-12-04T09:17:02.446Z,48.50
2022-12-04T09:23:03.805Z,48.73
2022-12-04T09:29:42.910Z,48.89
2022-12-04T09:32:57.445Z,48.90
2022-12-04T09:35:55.211Z,48.99
2022-12-04T09:42:48.574Z,49.23
2022-12-04T09:48:50.667Z,49.29
2022-12-04T10:15:40.844Z,50.12
2022-12-04T10:18:53.849Z,49.89
2022-12-04T10:21:44.521Z,50.14
2022-12-04T10:24:21.307Z,49.99
2022-12-04T10:27:01.712Z,49.88
2022-12-04T10:29:40.658Z,50.17
2022-12-04T10:32:23.225Z,50.19
2022-12-04T10:35:33.153Z,50.04
2022-12-04T10:38:09.572Z,49.81
2022-12-04T10:40:56.808Z,49.73
2022-12-04T10:46:28.620Z,50.18
2022-12-04T10:49:16.870Z,49.99
2022-12-04T10:52:40.237Z,50.12
2022-12-04T10:55:15.231Z,50.25
2022-12-04T10:58:13.722Z,50.03
2022-12-04T11:00:51.464Z,49.83
2022-12-04T11:03:50.647Z,50.10
2022-12-04T11:06:34.437Z,50.25
2022-12-04T11:09:41.121Z,50.05
2022-12-04T11:12:16.658Z,50.11
2022-12-04T11:41:54.600Z,49.71
2022-12-04T13:17:43.180Z,49.86
2022-12-04T13:20:19.712Z,49.48
2022-12-04T13:22:55.755Z,49.61
2022-12-04T13:25:32.634Z,49.81
2022-12-04T13:28:28.081Z,49.48
2022-12-04T13:30:58.573Z,49.24
2022-12-04T13:33:38.736Z,49.33
2022-12-04T13:36:32.422Z,49.20
2022-12-04T13:39:20.970Z,49.33
2022-12-04T13:44:42.012Z,49.18
2022-12-04T13:47:13.309Z,49.12
2022-12-04T13:49:44.521Z,48.76
2022-12-04T13:52:23.910Z,49.03
2022-12-04T13:54:59.058Z,48.93
2022-12-04T13:57:28.338Z,49.25
2022-12-04T14:00:04.333Z,48.92
2022-12-04T14:02:54.917Z,49.22
2022-12-04T14:05:29.395Z,48.99
2022-12-04T14:08:16.069Z,49.18
2022-12-04T14:10:44.602Z,48.89
2022-12-04T14:13:19.617Z,49.31
2022-12-04T14:15:54.499Z,49.01
2022-12-04T14:18:28.892Z,49.11
2022-12-04T14:20:59.672Z,49.21
2022-12-04T14:23:37.052Z,49.23
2022-12-04T14:26:05.961Z,49.75
2022-12-04T14:28:45.945Z,49.60
2022-12-04T14:31:25.711Z,49.83
2022-12-04T14:33:54.880Z,49.55
2022-12-04T14:36:26.427Z,49.70
2022-12-04T14:39:07.830Z,49.60
2022-12-04T14:41:41.084Z,49.63
2022-12-04T14:44:20.525Z,49.72
2022-12-04T14:46:50.500Z,49.85
2022-12-04T14:49:49.026Z,49.86
2022-12-04T14:52:19.926Z,49.84
2022-12-04T14:55:18.351Z,50.02
2022-12-04T14:57:59.649Z,49.83
2022-12-04T15:03:16.582Z,49.94
2022-12-04T15:05:49.300Z,49.80
2022-12-04T15:08:20.461Z,49.73
2022-12-04T15:11:09.934Z,50.09
2022-12-04T15:13:49.065Z,49.81
2022-12-04T15:16:20.907Z,49.98
2022-12-04T15:18:57.321Z,50.09
2022-12-04T15:21:28.051Z,50.19
2022-12-04T15:24:00.037Z,49.89
2022-12-04T15:26:29.714Z,50.04
2022-12-04T15:29:00.794Z,50.04
2022-12-04T15:31:32.838Z,49.89
2022-12-04T15:34:13.476Z,50.07
2022-12-04T15:36:46.988Z,49.89
2022-12-04T15:39:16.809Z,49.99
2022-12-04T15:41:49.189Z,49.95
2022-12-04T15:44:28.831Z,50.01
2022-12-04T15:46:59.962Z,50.12
2022-12-04T15:49:29.673Z,50.07
2022-12-04T15:52:07.159Z,50.12
2022-12-04T15:54:36.601Z,50.23
2022-12-04T15:57:08.405Z,50.45
2022-12-04T15:59:42.993Z,50.48
2022-12-04T16:02:26.806Z,50.35
2022-12-04T16:04:55.080Z,50.55
2022-12-04T16:07:24.866Z,50.67
2022-12-04T16:10:01.067Z,50.53
2022-12-04T16:12:32.983Z,50.50
2022-12-04T16:15:02.521Z,50.53
2022-12-04T16:17:39.170Z,50.66
2022-12-04T16:20:10.399Z,50.70
2022-12-04T16:22:39.909Z,50.63
2022-12-04T16:25:12.425Z,50.68
2022-12-04T16:28:01.674Z,50.70
2022-12-04T16:30:41.721Z,50.76
2022-12-04T16:33:20.049Z,50.56
2022-12-04T16:35:49.013Z,50.79
2022-12-04T16:38:18.016Z,50.95
2022-12-04T16:40:46.868Z,50.95
2022-12-04T16:43:16.433Z,51.07
2022-12-04T16:45:48.400Z,50.89
2022-12-04T16:48:16.540Z,50.92
2022-12-04T16:50:45.235Z,51.09
2022-12-04T16:53:16.175Z,51.23
2022-12-04T16:55:45.991Z,51.17
2022-12-04T16:58:14.295Z,51.30
2022-12-04T17:00:43.785Z,51.54
2022-12-04T17:03:19.334Z,51.65
2022-12-04T17:05:48.559Z,51.66
2022-12-04T17:08:18.453Z,51.59
2022-12-04T17:10:48.194Z,51.71
2022-12-04T17:13:18.622Z,51.80
2022-12-04T17:15:47.228Z,51.58
2022-12-04T17:18:21.008Z,51.86
2022-12-04T17:20:53.044Z,51.52
2022-12-04T17:23:21.149Z,51.72
2022-12-04T17:25:49.518Z,51.84
2022-12-04T17:28:20.081Z,51.77
2022-12-04T17:30:48.489Z,52.00
2022-12-04T17:33:18.899Z,51.66
2022-12-04T17:35:47.904Z,51.61
2022-12-04T17:38:15.961Z,51.66
2022-12-04T17:40:45.435Z,51.87
2022-12-04T17:43:18.846Z,51.83
2022-12-04T17:45:50.493Z,51.95
2022-12-04T17:48:19.875Z,51.91
2022-12-04T17:50:48.207Z,51.81
2022-12-04T17:53:17.486Z,52.01
2022-12-04T17:55:50.907Z,51.68
2022-12-04T17:58:19.368Z,51.66
2022-12-04T18:00:47.765Z,51.69
2022-12-04T18:03:16.203Z,51.92
2022-12-04T18:05:47.465Z,51.67
2022-12-04T18:08:15.910Z,51.83
2022-12-04T18:10:44.069Z,51.50
2022-12-04T18:13:12.040Z,51.79
2022-12-04T18:15:42.633Z,51.98
2022-12-04T18:18:13.276Z,51.76
2022-12-04T18:20:42.407Z,51.99
2022-12-04T18:23:14.453Z,51.92
2022-12-04T18:25:45.427Z,51.85
2022-12-04T18:28:14.090Z,51.73
2022-12-04T18:30:42.856Z,51.96
2022-12-04T18:33:14.855Z,51.81
2022-12-04T18:35:55.735Z,51.86
2022-12-04T18:38:25.746Z,51.58
2022-12-04T18:40:54.592Z,51.60
2022-12-04T18:43:22.750Z,51.79
2022-12-04T18:46:01.407Z,51.90
2022-12-04T18:48:34.356Z,51.62
2022-12-04T18:51:04.326Z,51.77
2022-12-04T18:53:33.780Z,51.88
2022-12-04T18:56:03.947Z,51.65
2022-12-04T18:58:33.459Z,51.45
2022-12-04T19:01:06.419Z,51.79
2022-12-04T19:03:35.032Z,51.79
2022-12-04T19:06:03.420Z,51.74
2022-12-04T19:08:38.773Z,51.77
2022-12-04T19:11:13.380Z,51.62
2022-12-04T19:13:41.592Z,51.75
2022-12-04T19:16:13.995Z,51.97
2022-12-04T19:18:42.816Z,51.77
2022-12-04T19:21:11.712Z,51.84
2022-12-04T19:23:46.615Z,51.59
2022-12-04T19:26:14.620Z,51.58
2022-12-04T19:28:47.363Z,51.47
2022-12-04T19:31:17.043Z,51.58
2022-12-04T19:33:46.154Z,51.92
2022-12-04T19:36:14.626Z,51.77
2022-12-04T19:38:44.216Z,51.59
2022-12-04T19:41:13.268Z,51.52
2022-12-04T19:43:41.880Z,51.61
2022-12-04T19:46:12.085Z,51.52
2022-12-04T19:48:41.243Z,51.61
2022-12-04T19:51:11.709Z,51.75
2022-12-04T19:53:41.350Z,51.69
2022-12-04T19:56:12.381Z,51.44
2022-12-04T19:58:42.955Z,51.79
2022-12-04T20:01:13.262Z,51.60
2022-12-04T20:03:41.936Z,51.75
2022-12-04T20:06:11.320Z,51.89
2022-12-04T20:08:39.546Z,51.50
2022-12-04T20:11:10.775Z,51.47
2022-12-04T20:13:40.282Z,51.54
2022-12-04T20:16:10.909Z,51.61
2022-12-04T20:18:39.670Z,51.51
2022-12-04T20:21:11.352Z,51.73
2022-12-04T20:23:40.190Z,51.60
2022-12-04T20:26:09.958Z,51.61
2022-12-04T20:28:39.115Z,51.73
2022-12-04T20:31:14.796Z,51.92
2022-12-04T20:33:43.325Z,51.52
2022-12-04T20:36:12.506Z,51.53
2022-12-04T20:38:40.694Z,51.44
2022-12-04T20:41:10.732Z,51.60
2022-12-04T20:43:39.015Z,51.65
2022-12-04T20:46:15.860Z,51.49
2022-12-04T20:48:48.361Z,51.48
2022-12-04T20:51:20.081Z,51.50
2022-12-04T20:53:49.955Z,51.30
2022-12-04T20:56:21.215Z,51.75
2022-12-04T20:58:50.432Z,51.45
2022-12-04T21:01:21.410Z,51.42
2022-12-04T21:03:49.665Z,51.67
2022-12-04T21:06:21.710Z,51.28
2022-12-04T21:09:00.787Z,51.44
2022-12-04T21:11:30.290Z,51.62
2022-12-04T21:14:22.221Z,51.28
2022-12-04T21:16:53.313Z,51.28
2022-12-04T21:19:24.257Z,51.57
2022-12-04T21:21:52.991Z,51.29
2022-12-04T21:24:34.119Z,51.15
2022-12-04T21:27:06.166Z,51.54
2022-12-04T21:29:36.816Z,51.43
2022-12-04T21:32:08.456Z,51.44
2022-12-04T21:34:36.700Z,51.07
2022-12-04T21:37:09.269Z,51.13
2022-12-04T21:39:39.999Z,50.98
2022-12-04T21:42:26.932Z,50.99
2022-12-04T21:44:55.289Z,51.05
2022-12-04T21:47:31.138Z,50.71
2022-12-04T21:50:05.683Z,50.79
2022-12-04T21:52:53.312Z,50.96
2022-12-04T21:55:40.479Z,50.81
2022-12-04T21:58:24.517Z,50.67
2022-12-04T22:01:16.867Z,50.65
2022-12-04T22:03:51.326Z,51.04
2022-12-04T22:06:21.855Z,50.65
2022-12-04T22:08:50.430Z,50.73
2022-12-04T22:11:19.469Z,50.60
2022-12-04T22:14:34.039Z,50.54
2022-12-04T22:17:09.701Z,50.36
2022-12-04T22:20:15.622Z,50.19
2022-12-04T22:25:50.794Z,50.08
2022-12-04T22:28:21.032Z,50.37
2022-12-04T22:30:50.311Z,50.74
2022-12-04T22:33:48.554Z,50.37
2022-12-04T22:36:20.868Z,50.41
2022-12-04T22:39:10.710Z,50.45
2022-12-04T22:41:41.322Z,50.27
2022-12-04T22:44:15.595Z,50.29
2022-12-04T22:46:59.015Z,50.13
2022-12-04T22:49:33.106Z,50.30
2022-12-04T22:52:03.036Z,50.12
2022-12-04T22:54:33.315Z,50.29
2022-12-04T22:59:46.714Z,50.59
2022-12-04T23:02:25.690Z,50.26
2022-12-04T23:04:57.253Z,50.16
2022-12-04T23:07:27.317Z,50.23
2022-12-04T23:10:09.471Z,50.22
2022-12-04T23:12:45.387Z,50.47
2022-12-04T23:15:13.569Z,50.33
2022-12-04T23:18:08.535Z,50.24
2022-12-04T23:20:58.298Z,50.40
2022-12-04T23:23:34.374Z,50.24
2022-12-04T23:26:04.916Z,50.35
2022-12-04T23:28:46.994Z,50.21
2022-12-04T23:31:19.621Z,50.03
2022-12-04T23:33:49.380Z,50.39
2022-12-04T23:36:18.187Z,49.95
2022-12-04T23:38:47.239Z,50.17
2022-12-04T23:41:23.982Z,50.25
2022-12-04T23:44:23.885Z,49.83
2022-12-04T23:46:54.500Z,49.47
2022-12-04T23:49:29.276Z,49.18
2022-12-04T23:52:07.489Z,49.16
2022-12-04T23:54:38.101Z,49.44
2022-12-04T23:57:37.678Z,49.53
